Time;durP1;ratioP1;P1;durP2;ratioP2;P2;SDS_P1;SDS_P2;PMS_P1;PMS_P2;Temp;Humidity;BMP_temperature;BMP_pressure;BME280_temperature;BME280_humidity;BME280_pressure;Samples;Min_cycle;Max_cycle;Signal;HPM_P1;HPM_P2
2022/05/07 00:02:18;;;;;;;5.60;5.20;;;14.30;99.90;;;;;;4987008;28;20574;-64
2022/05/07 00:05:07;;;;;;;6.00;5.50;;;14.30;99.90;;;;;;4985528;28;20909;-64
2022/05/07 00:07:57;;;;;;;5.50;5.00;;;14.30;99.90;;;;;;4989867;28;20481;-64
2022/05/07 00:10:45;;;;;;;5.90;5.43;;;14.30;99.90;;;;;;4988718;28;20534;-64
2022/05/07 00:13:33;;;;;;;6.20;5.60;;;14.30;99.90;;;;;;4987465;28;20480;-64
2022/05/07 00:19:27;;;;;;;5.60;5.10;;;14.30;99.90;;;;;;4985868;28;20465;-64
2022/05/07 00:22:16;;;;;;;5.67;5.20;;;14.30;99.90;;;;;;4988576;28;21085;-64
2022/05/07 00:25:06;;;;;;;5.97;5.47;;;14.30;99.90;;;;;;4988801;28;20556;-64
2022/05/07 00:27:54;;;;;;;6.30;5.80;;;14.20;99.90;;;;;;4986852;28;20560;-65
2022/05/07 00:30:42;;;;;;;6.20;5.70;;;14.20;99.90;;;;;;4990480;28;20551;-65
2022/05/07 00:33:31;;;;;;;5.40;4.90;;;14.20;99.90;;;;;;4986977;28;20963;-65
2022/05/07 00:36:21;;;;;;;6.00;5.37;;;14.10;99.90;;;;;;4986474;28;20461;-64
2022/05/07 00:39:10;;;;;;;6.57;5.97;;;14.10;99.90;;;;;;4984312;28;20600;-64
2022/05/07 00:42:06;;;;;;;6.17;5.63;;;14.00;99.90;;;;;;4987678;28;20476;-64
2022/05/07 00:44:54;;;;;;;5.73;5.23;;;14.00;99.90;;;;;;4987800;28;20995;-65
2022/05/07 00:47:42;;;;;;;6.23;5.63;;;14.00;99.90;;;;;;4989948;28;20624;-65
2022/05/07 00:53:38;;;;;;;7.03;6.33;;;13.90;99.90;;;;;;4984038;28;20607;-65
2022/05/07 00:56:26;;;;;;;6.40;5.90;;;13.90;99.90;;;;;;4990370;28;21016;-65
2022/05/07 00:59:17;;;;;;;6.60;6.00;;;13.80;99.90;;;;;;4987044;28;20484;-65
2022/05/07 01:02:06;;;;;;;7.60;6.90;;;13.80;99.90;;;;;;4984510;28;20526;-65
2022/05/07 01:04:54;;;;;;;6.43;5.83;;;13.70;99.90;;;;;;4986945;28;20473;-65
2022/05/07 01:07:45;;;;;;;6.40;5.90;;;13.70;99.90;;;;;;4985023;28;20603;-65
2022/05/07 01:10:34;;;;;;;6.90;6.33;;;13.60;99.90;;;;;;4991201;28;20458;-65
2022/05/07 01:13:22;;;;;;;6.60;6.00;;;13.60;99.90;;;;;;4984597;28;20600;-64
2022/05/07 01:16:13;;;;;;;7.03;5.80;;;13.60;99.90;;;;;;4984035;28;20496;-65
2022/05/07 01:19:01;;;;;;;8.30;6.30;;;13.60;99.90;;;;;;4984945;28;20489;-65
2022/05/07 01:21:50;;;;;;;6.47;5.97;;;13.50;99.90;;;;;;4984911;28;20913;-65
2022/05/07 01:24:39;;;;;;;6.53;6.03;;;13.50;99.90;;;;;;4985156;28;20453;-66
2022/05/07 01:27:27;;;;;;;6.53;6.03;;;13.40;99.90;;;;;;4990056;28;20640;-65
2022/05/07 01:30:15;;;;;;;6.73;5.90;;;13.40;99.90;;;;;;4981364;28;20557;-65
2022/05/07 01:33:03;;;;;;;6.60;5.97;;;13.40;99.90;;;;;;4982646;28;21055;-65
2022/05/07 01:35:51;;;;;;;5.73;5.23;;;13.30;99.90;;;;;;4988373;28;20544;-64
2022/05/07 01:38:41;;;;;;;6.60;6.10;;;13.30;99.90;;;;;;4989673;28;20629;-65
2022/05/07 01:41:29;;;;;;;6.83;6.03;;;13.20;99.90;;;;;;4987954;28;20515;-65
2022/05/07 01:44:17;;;;;;;6.20;5.70;;;13.20;99.90;;;;;;4991339;28;20505;-65
2022/05/07 01:50:11;;;;;;;6.40;5.90;;;13.10;99.90;;;;;;4993779;28;20508;-64
2022/05/07 01:52:59;;;;;;;7.10;6.60;;;13.10;99.90;;;;;;4995030;28;20698;-64
2022/05/07 01:55:49;;;;;;;7.03;6.43;;;13.10;99.90;;;;;;4998617;28;20453;-65
2022/05/07 01:58:37;;;;;;;6.80;6.20;;;13.00;99.90;;;;;;4992593;28;20512;-65
2022/05/07 02:01:25;;;;;;;6.57;6.03;;;13.00;99.90;;;;;;4997833;28;20527;-64
2022/05/07 02:04:14;;;;;;;6.93;6.33;;;12.90;99.90;;;;;;4993293;28;20475;-64
2022/05/07 02:07:02;;;;;;;6.87;6.27;;;12.90;99.90;;;;;;4994527;28;20605;-65
2022/05/07 02:09:50;;;;;;;7.27;6.67;;;12.80;99.90;;;;;;4994198;28;20515;-65
2022/05/07 02:12:40;;;;;;;6.97;6.37;;;12.90;99.90;;;;;;4995217;28;20485;-65
2022/05/07 02:15:30;;;;;;;6.67;6.10;;;12.90;99.90;;;;;;4994045;28;20452;-65
2022/05/07 02:18:18;;;;;;;6.90;6.30;;;12.80;99.90;;;;;;4998024;28;20519;-65
2022/05/07 02:21:06;;;;;;;6.73;6.23;;;12.80;99.90;;;;;;4995307;28;21042;-66
2022/05/07 02:23:54;;;;;;;7.03;6.43;;;12.80;99.90;;;;;;4994327;28;20493;-65
2022/05/07 02:26:43;;;;;;;7.33;6.57;;;12.80;99.90;;;;;;4993991;28;20987;-64
2022/05/07 02:29:32;;;;;;;7.80;7.00;;;12.80;99.90;;;;;;4983396;28;20569;-64
2022/05/07 02:32:20;;;;;;;8.50;7.60;;;12.70;99.90;;;;;;4988608;28;20492;-64
2022/05/07 02:35:09;;;;;;;7.90;7.13;;;12.70;99.90;;;;;;4989560;28;20465;-64
2022/05/07 02:37:58;;;;;;;8.47;7.67;;;12.70;99.90;;;;;;4986776;28;20475;-64
2022/05/07 02:43:56;;;;;;;7.60;6.80;;;12.60;99.90;;;;;;4985886;28;20470;-64
2022/05/07 02:46:45;;;;;;;11.13;8.30;;;12.60;99.90;;;;;;4986511;28;20535;-64
2022/05/07 02:49:34;;;;;;;8.30;7.50;;;12.70;99.90;;;;;;4992029;28;20499;-65
2022/05/07 02:52:22;;;;;;;8.40;7.67;;;12.70;99.90;;;;;;4987132;28;21018;-64
2022/05/07 02:55:11;;;;;;;10.43;8.10;;;12.60;99.90;;;;;;4983130;28;20971;-64
2022/05/07 02:57:59;;;;;;;10.27;9.10;;;12.60;99.90;;;;;;4988108;28;20464;-64
2022/05/07 03:00:49;;;;;;;14.03;9.60;;;12.60;99.90;;;;;;4993199;28;20953;-64
2022/05/07 03:03:39;;;;;;;9.23;8.37;;;12.60;99.90;;;;;;4984966;28;20473;-64
2022/05/07 03:06:27;;;;;;;9.40;8.50;;;12.60;99.90;;;;;;4990758;28;20485;-64
2022/05/07 03:09:15;;;;;;;10.60;9.40;;;12.70;99.90;;;;;;4987197;28;20575;-64
2022/05/07 03:12:04;;;;;;;11.33;10.23;;;12.70;99.90;;;;;;4985835;28;20485;-64
2022/05/07 03:14:52;;;;;;;10.93;9.90;;;12.70;99.90;;;;;;4988719;28;20818;-64
2022/05/07 03:17:40;;;;;;;11.40;10.30;;;12.70;99.90;;;;;;4989999;28;25409;-64
2022/05/07 03:20:30;;;;;;;14.93;13.47;;;12.70;99.90;;;;;;4989286;28;20460;-64
2022/05/07 03:23:18;;;;;;;15.13;13.57;;;12.60;99.90;;;;;;4982046;28;21013;-64
2022/05/07 03:26:06;;;;;;;13.77;12.47;;;12.60;99.90;;;;;;4987864;28;20813;-64
2022/05/07 03:28:55;;;;;;;13.37;12.07;;;12.60;99.90;;;;;;4987081;28;21050;-64
2022/05/07 03:31:47;;;;;;;16.13;13.07;;;12.50;99.90;;;;;;4990753;28;20542;-64
2022/05/07 03:34:35;;;;;;;14.70;13.10;;;12.50;99.90;;;;;;4986596;28;20541;-64
2022/05/07 03:37:24;;;;;;;14.53;13.10;;;12.50;99.90;;;;;;4985933;28;20453;-64
2022/05/07 03:40:13;;;;;;;15.73;14.10;;;12.40;99.90;;;;;;4989041;28;20472;-64
2022/05/07 03:43:01;;;;;;;16.57;14.03;;;12.40;99.90;;;;;;4989385;28;20472;-64
2022/05/07 03:45:49;;;;;;;16.83;15.13;;;12.40;99.90;;;;;;4991152;28;20464;-64
2022/05/07 03:48:37;;;;;;;16.20;14.50;;;12.40;99.90;;;;;;4991637;28;20501;-64
2022/05/07 03:51:26;;;;;;;18.50;16.60;;;12.30;99.90;;;;;;4990304;28;20450;-64
2022/05/07 03:54:14;;;;;;;18.87;16.87;;;12.30;99.90;;;;;;4989191;28;20569;-64
2022/05/07 03:57:03;;;;;;;19.80;17.73;;;12.30;99.90;;;;;;4987302;28;20608;-64
2022/05/07 03:59:51;;;;;;;19.23;16.83;;;12.30;99.90;;;;;;4989764;28;20504;-64
2022/05/07 04:02:39;;;;;;;18.37;16.47;;;12.30;99.90;;;;;;4983608;28;20829;-64
2022/05/07 04:05:27;;;;;;;18.83;16.90;;;12.20;99.90;;;;;;4986737;28;20635;-64
2022/05/07 04:08:16;;;;;;;19.80;17.77;;;12.20;99.90;;;;;;4989699;28;20477;-64
2022/05/07 04:11:09;;;;;;;20.43;17.57;;;12.20;99.90;;;;;;4984246;28;20797;-64
2022/05/07 04:13:57;;;;;;;20.80;18.00;;;12.20;99.90;;;;;;4987723;28;20589;-64
2022/05/07 04:16:45;;;;;;;20.33;17.33;;;12.20;99.90;;;;;;4990655;28;20524;-64
2022/05/07 04:19:34;;;;;;;21.40;19.10;;;12.20;99.90;;;;;;4988430;28;20556;-64
2022/05/07 04:22:22;;;;;;;20.63;18.40;;;12.20;99.90;;;;;;4984288;28;20472;-64
2022/05/07 04:25:13;;;;;;;19.60;17.60;;;12.10;99.90;;;;;;4982157;28;20845;-64
2022/05/07 04:28:02;;;;;;;20.80;17.90;;;12.10;99.90;;;;;;4986124;28;20456;-64
2022/05/07 04:30:50;;;;;;;21.13;18.13;;;12.10;99.90;;;;;;4986183;28;20810;-64
2022/05/07 04:33:39;;;;;;;22.03;18.67;;;12.10;99.90;;;;;;4984481;28;21131;-64
2022/05/07 04:36:27;;;;;;;19.70;17.80;;;12.20;99.90;;;;;;4981567;28;20519;-64
2022/05/07 04:39:15;;;;;;;18.70;16.80;;;12.10;99.90;;;;;;4983167;28;20489;-63
2022/05/07 04:42:04;;;;;;;20.17;17.73;;;12.10;99.90;;;;;;4985771;28;20598;-64
2022/05/07 04:44:54;;;;;;;19.60;17.40;;;12.10;99.90;;;;;;4981583;28;20558;-64
2022/05/07 04:47:42;;;;;;;21.73;17.10;;;12.10;99.90;;;;;;4985771;28;20471;-63
2022/05/07 04:50:30;;;;;;;20.30;18.07;;;12.10;99.90;;;;;;4993228;28;20992;-65
2022/05/07 04:53:18;;;;;;;18.83;16.40;;;12.20;99.90;;;;;;4990958;28;20529;-64
2022/05/07 04:56:07;;;;;;;21.37;17.60;;;12.10;99.90;;;;;;4991311;28;20510;-63
2022/05/07 04:58:55;;;;;;;20.10;17.43;;;12.10;99.90;;;;;;4992899;28;20572;-64
2022/05/07 05:01:45;;;;;;;18.00;16.07;;;12.20;99.90;;;;;;4989444;28;20499;-64
2022/05/07 05:04:33;;;;;;;19.27;17.20;;;12.20;99.90;;;;;;4985861;28;20458;-64
2022/05/07 05:07:21;;;;;;;18.00;16.10;;;12.20;99.90;;;;;;4981429;28;20503;-64
2022/05/07 05:10:09;;;;;;;19.67;17.57;;;12.30;99.90;;;;;;4987797;28;20485;-64
2022/05/07 05:12:58;;;;;;;20.93;18.70;;;12.30;99.90;;;;;;4988671;28;20567;-65
2022/05/07 05:15:46;;;;;;;21.23;19.00;;;12.30;99.90;;;;;;4985027;28;20486;-64
2022/05/07 05:18:35;;;;;;;18.90;16.87;;;12.40;99.90;;;;;;4987734;28;20526;-64
2022/05/07 05:21:23;;;;;;;20.13;17.83;;;12.50;99.90;;;;;;4991189;28;20457;-64
2022/05/07 05:24:12;;;;;;;20.23;17.73;;;12.50;99.90;;;;;;4989196;28;20481;-64
2022/05/07 05:27:00;;;;;;;22.67;20.30;;;12.60;99.90;;;;;;4990869;28;20468;-65
2022/05/07 05:29:48;;;;;;;22.63;19.30;;;12.60;99.90;;;;;;4984023;28;20483;-64
2022/05/07 05:32:36;;;;;;;23.50;21.00;;;12.70;99.90;;;;;;4981093;28;20507;-64
2022/05/07 05:35:26;;;;;;;21.13;18.90;;;12.70;99.90;;;;;;4987305;28;20509;-64
2022/05/07 05:38:15;;;;;;;21.07;18.37;;;12.80;99.90;;;;;;4987169;28;20485;-65
2022/05/07 05:41:03;;;;;;;23.40;20.93;;;12.80;99.90;;;;;;4986819;28;21490;-64
2022/05/07 05:43:51;;;;;;;24.43;21.80;;;12.90;99.90;;;;;;4985556;28;20551;-64
2022/05/07 05:46:39;;;;;;;25.20;22.57;;;12.90;99.90;;;;;;4973077;28;20458;-64
2022/05/07 05:49:28;;;;;;;25.47;22.77;;;13.00;99.90;;;;;;4975533;28;20523;-65
2022/05/07 05:52:17;;;;;;;26.77;22.07;;;13.00;99.90;;;;;;4987134;28;20472;-64
2022/05/07 05:55:06;;;;;;;24.63;22.00;;;13.10;99.90;;;;;;4981077;28;20873;-65
2022/05/07 05:57:55;;;;;;;26.00;23.30;;;13.10;99.90;;;;;;4977906;28;20457;-64
2022/05/07 06:00:43;;;;;;;26.57;23.67;;;13.20;99.90;;;;;;4970912;28;20457;-65
2022/05/07 06:03:32;;;;;;;24.63;22.00;;;13.20;99.90;;;;;;4984469;28;20547;-65
2022/05/07 06:06:20;;;;;;;25.63;22.63;;;13.20;99.90;;;;;;4985116;28;20472;-65
2022/05/07 06:09:10;;;;;;;23.57;21.07;;;13.20;99.90;;;;;;4976473;28;20570;-65
2022/05/07 06:11:59;;;;;;;23.40;20.90;;;13.30;99.90;;;;;;4979594;28;21601;-65
2022/05/07 06:14:47;;;;;;;23.23;20.83;;;13.30;99.90;;;;;;4983340;28;20460;-65
2022/05/07 06:17:35;;;;;;;22.77;20.17;;;13.40;99.90;;;;;;4982916;28;20448;-65
2022/05/07 06:20:24;;;;;;;22.20;19.10;;;13.40;99.90;;;;;;4987151;28;20453;-65
2022/05/07 06:23:12;;;;;;;22.27;19.87;;;13.40;99.90;;;;;;4976944;28;20509;-65
2022/05/07 06:29:08;;;;;;;21.13;18.17;;;13.50;99.90;;;;;;4963632;28;20867;-66
2022/05/07 06:31:56;;;;;;;18.50;16.50;;;13.60;99.90;;;;;;4981236;28;21370;-65
2022/05/07 06:34:44;;;;;;;19.70;16.97;;;13.70;99.90;;;;;;4985095;28;20460;-65
2022/05/07 06:37:33;;;;;;;18.83;16.63;;;13.70;99.90;;;;;;4989919;28;20461;-65
2022/05/07 06:40:22;;;;;;;17.27;15.47;;;13.80;99.90;;;;;;4987797;28;20456;-67
2022/05/07 06:43:11;;;;;;;17.63;15.83;;;13.90;99.90;;;;;;4988882;28;20477;-66
2022/05/07 06:46:00;;;;;;;16.47;14.77;;;13.90;99.90;;;;;;4983600;28;20525;-66
2022/05/07 06:48:49;;;;;;;16.60;14.90;;;14.00;99.90;;;;;;4988250;28;20603;-67
2022/05/07 06:51:37;;;;;;;15.47;13.93;;;14.00;99.90;;;;;;4990706;28;21070;-66
2022/05/07 06:54:25;;;;;;;16.20;14.50;;;14.10;99.90;;;;;;4977574;28;20473;-67
2022/05/07 06:57:13;;;;;;;15.40;13.20;;;14.10;99.90;;;;;;4981005;28;20566;-65
2022/05/07 07:00:03;;;;;;;13.60;12.30;;;14.20;99.90;;;;;;4994440;28;20490;-66
2022/05/07 07:02:51;;;;;;;13.40;11.83;;;14.20;99.90;;;;;;4986958;28;20526;-66
2022/05/07 07:05:39;;;;;;;12.40;11.10;;;14.30;99.90;;;;;;4985503;28;20461;-66
2022/05/07 07:08:29;;;;;;;11.63;10.53;;;14.30;99.90;;;;;;4984984;28;20477;-66
2022/05/07 07:11:17;;;;;;;11.97;10.73;;;14.30;99.90;;;;;;4979229;28;20506;-66
2022/05/07 07:14:05;;;;;;;13.20;11.70;;;14.40;99.90;;;;;;4976960;28;20539;-68
2022/05/07 07:16:55;;;;;;;11.23;9.50;;;14.40;99.90;;;;;;4980330;28;20937;-68
2022/05/07 07:19:43;;;;;;;11.00;9.90;;;14.40;99.90;;;;;;4991662;28;20616;-68
2022/05/07 07:22:32;;;;;;;11.93;10.67;;;14.50;99.90;;;;;;4977411;28;20707;-67
2022/05/07 07:25:20;;;;;;;11.13;10.03;;;14.50;99.90;;;;;;4984965;28;20453;-68
2022/05/07 07:28:09;;;;;;;8.80;8.00;;;14.50;99.90;;;;;;4985751;28;20469;-68
2022/05/07 07:30:59;;;;;;;13.60;9.63;;;14.60;99.90;;;;;;4981799;28;20580;-67
2022/05/07 07:33:50;;;;;;;9.57;8.60;;;14.70;99.90;;;;;;4984674;28;20927;-66
2022/05/07 07:36:39;;;;;;;9.17;8.27;;;14.80;99.90;;;;;;4984530;28;20468;-67
2022/05/07 07:39:27;;;;;;;9.10;7.97;;;14.80;99.90;;;;;;4981561;28;21036;-68
2022/05/07 07:42:17;;;;;;;11.50;9.80;;;14.90;99.90;;;;;;4978493;28;20468;-67
2022/05/07 07:48:14;;;;;;;9.60;8.23;;;15.10;99.90;;;;;;4977360;28;20479;-69
2022/05/07 07:51:06;;;;;;;11.43;7.80;;;15.10;99.90;;;;;;4976513;28;20540;-65
2022/05/07 07:53:55;;;;;;;9.00;8.10;;;15.10;99.90;;;;;;4965816;28;21178;-66
2022/05/07 07:56:44;;;;;;;8.37;7.30;;;15.10;99.90;;;;;;4981935;28;20465;-65
2022/05/07 07:59:32;;;;;;;10.70;8.17;;;15.20;99.90;;;;;;4985457;28;20481;-66
2022/05/07 08:02:20;;;;;;;7.90;7.10;;;15.20;99.90;;;;;;4979196;28;20469;-66
2022/05/07 08:05:09;;;;;;;7.40;6.67;;;15.30;99.90;;;;;;4982589;28;20457;-65
2022/05/07 08:14:13;;;;;;;15.10;8.30;;;15.50;99.90;;;;;;4984799;28;20865;-66
2022/05/07 08:17:01;;;;;;;8.70;7.37;;;15.50;99.90;;;;;;4976364;28;20678;-66
2022/05/07 08:19:49;;;;;;;9.30;7.70;;;15.60;99.90;;;;;;4984023;28;20961;-66
2022/05/07 08:22:37;;;;;;;8.50;7.17;;;15.60;99.90;;;;;;4984805;28;20506;-67
2022/05/07 08:25:28;;;;;;;7.27;6.57;;;15.70;99.90;;;;;;4985801;28;20457;-67
2022/05/07 08:28:17;;;;;;;10.00;7.77;;;15.80;99.90;;;;;;4983614;28;20970;-66
2022/05/07 08:31:06;;;;;;;8.80;7.83;;;15.80;99.90;;;;;;4990568;28;20959;-67
2022/05/07 08:33:55;;;;;;;10.00;8.60;;;15.90;99.90;;;;;;4979427;28;20872;-67
2022/05/07 08:36:43;;;;;;;8.20;7.40;;;15.90;99.90;;;;;;4977625;28;20527;-67
2022/05/07 08:39:31;;;;;;;11.40;7.80;;;16.00;99.90;;;;;;4981391;28;20499;-67
2022/05/07 08:42:21;;;;;;;8.70;7.23;;;16.10;99.90;;;;;;4977830;28;20507;-66
2022/05/07 08:45:12;;;;;;;9.40;8.03;;;16.20;99.90;;;;;;4987713;28;20460;-66
2022/05/07 08:48:00;;;;;;;9.33;8.07;;;16.20;99.90;;;;;;4981893;28;20622;-66
2022/05/07 08:50:51;;;;;;;8.37;7.20;;;16.40;99.90;;;;;;4983055;28;20456;-66
2022/05/07 08:53:39;;;;;;;7.20;6.50;;;16.40;99.90;;;;;;4969456;28;20687;-67
2022/05/07 08:56:27;;;;;;;8.23;7.27;;;16.40;99.90;;;;;;4965624;28;21134;-66
2022/05/07 08:59:17;;;;;;;6.77;6.07;;;16.50;99.90;;;;;;4971542;28;20488;-65
2022/05/07 09:02:05;;;;;;;7.27;6.57;;;16.60;99.90;;;;;;4970536;28;20492;-66
2022/05/07 10:06:01;;;;;;;9.03;8.13;;;17.70;99.90;;;;;;4898294;29;20990;-68
2022/05/07 10:09:05;;;;;;;11.23;9.87;;;17.60;99.90;;;;;;4882995;29;20506;-68
2022/05/07 10:12:08;;;;;;;12.03;10.83;;;17.60;99.90;;;;;;4891512;29;20512;-67
2022/05/07 10:15:09;;;;;;;13.90;12.60;;;17.60;99.90;;;;;;4882126;29;21188;-68
2022/05/07 10:18:06;;;;;;;12.53;11.23;;;17.60;99.90;;;;;;4879998;29;20584;-68
2022/05/07 10:21:12;;;;;;;12.30;11.10;;;17.70;99.90;;;;;;4879047;29;20471;-68
2022/05/07 10:24:01;;;;;;;12.00;10.70;;;17.70;99.90;;;;;;4880544;29;20489;-68
2022/05/07 10:26:51;;;;;;;10.47;9.43;;;17.80;99.90;;;;;;4875068;29;20479;-68
2022/05/07 10:29:42;;;;;;;12.13;10.90;;;17.80;99.90;;;;;;4885266;29;20513;-68
2022/05/07 10:32:31;;;;;;;13.13;10.33;;;17.90;99.90;;;;;;4877373;29;20500;-67
2022/05/07 10:35:38;;;;;;;12.10;10.80;;;17.90;99.90;;;;;;4875092;29;20474;-67
2022/05/07 10:38:42;;;;;;;10.33;9.33;;;18.00;99.90;;;;;;4878999;29;21023;-68
2022/05/07 10:41:32;;;;;;;9.60;8.70;;;18.10;99.90;;;;;;4877266;29;20501;-67
2022/05/07 10:44:31;;;;;;;12.87;9.83;;;18.20;99.90;;;;;;4878468;29;20514;-68
2022/05/07 10:47:22;;;;;;;10.57;8.93;;;18.20;99.90;;;;;;4875593;29;20554;-67
2022/05/07 10:50:12;;;;;;;9.60;8.57;;;18.30;99.90;;;;;;4878622;29;21234;-68
2022/05/07 10:53:00;;;;;;;9.00;8.10;;;18.30;99.90;;;;;;4876053;29;20505;-68
2022/05/07 10:55:55;;;;;;;9.80;7.77;;;18.40;99.90;;;;;;4873655;29;20489;-69
2022/05/07 10:58:48;;;;;;;8.60;7.67;;;18.60;99.90;;;;;;4876244;29;20512;-69
2022/05/07 11:01:39;;;;;;;8.80;7.90;;;18.60;99.90;;;;;;4871477;29;20468;-69
2022/05/07 11:04:27;;;;;;;8.73;7.87;;;18.50;99.90;;;;;;4875601;29;21050;-69
2022/05/07 11:07:20;;;;;;;8.93;6.73;;;18.50;99.90;;;;;;4885217;29;20472;-71
2022/05/07 11:10:09;;;;;;;7.67;6.23;;;18.40;99.90;;;;;;4875483;29;20499;-69
2022/05/07 11:13:12;;;;;;;7.47;6.77;;;18.40;99.90;;;;;;4868200;29;20509;-70
2022/05/07 11:16:04;;;;;;;7.30;6.60;;;18.40;99.90;;;;;;4879060;29;20469;-70
2022/05/07 11:18:53;;;;;;;7.80;6.70;;;18.40;99.90;;;;;;4878680;29;20469;-70
2022/05/07 11:21:47;;;;;;;7.20;6.50;;;18.30;99.90;;;;;;4881457;29;20960;-70
2022/05/07 11:24:35;;;;;;;5.30;4.80;;;18.40;99.90;;;;;;4878133;29;20489;-70
2022/05/07 11:27:29;;;;;;;28.87;21.80;;;18.40;99.90;;;;;;4863286;29;21281;-69
2022/05/07 11:30:19;;;;;;;11.80;9.53;;;18.60;99.90;;;;;;4879283;29;20477;-67
2022/05/07 11:33:07;;;;;;;15.23;11.67;;;18.70;99.90;;;;;;4877576;29;20502;-67
2022/05/07 11:36:03;;;;;;;8.87;7.43;;;18.70;99.90;;;;;;4880861;29;20961;-67
2022/05/07 11:38:59;;;;;;;10.33;9.33;;;18.80;99.90;;;;;;4879044;29;20466;-69
2022/05/07 11:41:54;;;;;;;9.67;8.77;;;18.70;99.90;;;;;;4874956;29;20926;-69
2022/05/07 11:48:05;;;;;;;9.20;8.33;;;18.60;99.90;;;;;;4873513;29;20518;-67
2022/05/07 11:50:55;;;;;;;11.00;9.90;;;18.50;99.90;;;;;;4869286;29;20877;-69
2022/05/07 11:53:45;;;;;;;10.50;9.40;;;18.50;99.90;;;;;;4870151;29;20855;-69
2022/05/07 11:56:46;;;;;;;11.87;10.17;;;18.50;99.90;;;;;;4874126;29;20469;-69
2022/05/07 11:59:43;;;;;;;11.17;10.07;;;18.40;99.90;;;;;;4879719;29;20553;-69
2022/05/07 12:02:34;;;;;;;9.83;8.83;;;18.40;99.90;;;;;;4880477;29;21042;-68
2022/05/07 12:05:29;;;;;;;10.23;9.30;;;18.40;99.90;;;;;;4878145;29;20481;-68
2022/05/07 12:08:21;;;;;;;10.60;9.37;;;18.40;99.90;;;;;;4868887;29;20952;-68
2022/05/07 12:11:09;;;;;;;10.23;8.60;;;18.20;99.90;;;;;;4882494;29;20454;-69
2022/05/07 12:13:59;;;;;;;9.77;8.90;;;18.20;99.90;;;;;;4880016;29;21006;-68
2022/05/07 12:19:59;;;;;;;8.57;7.77;;;18.20;99.90;;;;;;4870826;29;20722;-68
2022/05/07 12:32:11;;;;;;;7.10;6.40;;;18.20;99.90;;;;;;4876363;29;21191;-68
2022/05/07 12:34:59;;;;;;;6.63;6.03;;;18.20;99.90;;;;;;4873257;29;20470;-69
2022/05/07 12:37:48;;;;;;;6.60;5.80;;;18.10;99.90;;;;;;4875684;29;20478;-69
2022/05/07 12:40:37;;;;;;;7.00;5.80;;;18.10;99.90;;;;;;4876524;29;20520;-69
2022/05/07 12:43:25;;;;;;;11.63;5.97;;;18.20;99.90;;;;;;4873200;29;22081;-69
2022/05/07 12:46:14;;;;;;;5.43;4.93;;;18.30;99.90;;;;;;4872897;29;21006;-69
2022/05/07 12:49:04;;;;;;;4.40;4.00;;;18.40;99.90;;;;;;4874939;29;20534;-71
2022/05/07 12:51:53;;;;;;;4.67;4.27;;;18.60;99.90;;;;;;4867498;29;20484;-71
2022/05/07 12:54:41;;;;;;;5.00;4.50;;;18.70;99.90;;;;;;4871186;29;20596;-71
2022/05/07 12:57:31;;;;;;;4.70;4.30;;;18.70;99.90;;;;;;4867979;29;20493;-66
2022/05/07 13:00:19;;;;;;;4.90;3.60;;;18.60;99.90;;;;;;4876056;29;20472;-67
2022/05/07 13:03:09;;;;;;;5.03;3.93;;;18.70;99.90;;;;;;4871593;29;20565;-67
2022/05/07 13:05:57;;;;;;;4.30;3.90;;;18.80;99.90;;;;;;4871783;29;20467;-68
2022/05/07 13:08:45;;;;;;;5.50;3.77;;;18.90;99.90;;;;;;4871534;29;20553;-67
2022/05/07 13:11:33;;;;;;;18.43;10.20;;;19.00;99.90;;;;;;4875659;29;20470;-70
2022/05/07 13:14:23;;;;;;;7.00;5.20;;;19.00;99.90;;;;;;4878092;29;20536;-69
2022/05/07 13:17:11;;;;;;;4.40;4.00;;;18.90;99.90;;;;;;4868047;29;20843;-69
2022/05/07 13:19:59;;;;;;;4.63;4.23;;;18.80;99.90;;;;;;4874815;29;20470;-69
2022/05/07 13:22:48;;;;;;;4.57;3.90;;;18.90;99.90;;;;;;4854080;29;21254;-70
2022/05/07 13:25:36;;;;;;;3.97;3.57;;;19.00;99.90;;;;;;4878993;29;20491;-70
2022/05/07 13:28:24;;;;;;;4.30;3.23;;;18.90;99.90;;;;;;4880453;29;20544;-69
2022/05/07 13:31:15;;;;;;;8.57;3.27;;;18.90;99.90;;;;;;4864850;29;20470;-69
2022/05/07 13:34:04;;;;;;;5.70;3.53;;;18.90;99.90;;;;;;4875200;29;20498;-69
2022/05/07 13:36:52;;;;;;;3.50;3.20;;;18.90;99.90;;;;;;4870208;29;20470;-69
2022/05/07 13:39:41;;;;;;;3.07;2.80;;;18.90;99.90;;;;;;4861043;29;20466;-68
2022/05/07 13:42:29;;;;;;;4.00;3.60;;;19.00;99.90;;;;;;4868081;29;20482;-69
2022/05/07 13:45:18;;;;;;;5.23;3.20;;;19.00;99.90;;;;;;4875839;29;20478;-69
2022/05/07 13:48:08;;;;;;;2.83;2.60;;;19.10;99.90;;;;;;4880609;29;20459;-68
2022/05/07 13:50:56;;;;;;;3.57;3.27;;;19.10;99.90;;;;;;4884806;29;20463;-68
2022/05/07 13:53:44;;;;;;;3.60;3.30;;;19.00;99.90;;;;;;4876637;29;20497;-69
2022/05/07 13:56:32;;;;;;;3.57;3.07;;;18.80;99.90;;;;;;4881412;29;20536;-69
2022/05/07 13:59:22;;;;;;;3.63;3.30;;;18.60;99.90;;;;;;4875252;29;20550;-69
2022/05/07 14:02:10;;;;;;;3.80;3.40;;;18.60;99.90;;;;;;4870438;29;21054;-69
2022/05/07 14:05:00;;;;;;;4.23;3.83;;;18.60;99.90;;;;;;4881464;29;20590;-69
2022/05/07 14:07:48;;;;;;;4.30;3.90;;;18.60;99.90;;;;;;4882291;29;20796;-69
2022/05/07 14:10:37;;;;;;;4.87;4.37;;;18.60;99.90;;;;;;4886656;29;20855;-69
2022/05/07 14:13:25;;;;;;;5.87;3.90;;;18.60;99.90;;;;;;4888933;29;21530;-69
2022/05/07 14:16:13;;;;;;;6.03;4.10;;;18.50;99.90;;;;;;4901757;29;20477;-69
2022/05/07 14:19:01;;;;;;;4.17;3.40;;;18.40;99.90;;;;;;4905855;29;20462;-69
2022/05/07 14:21:53;;;;;;;4.30;4.00;;;18.40;99.90;;;;;;4887034;29;20810;-69
2022/05/07 14:24:42;;;;;;;5.07;4.50;;;18.40;99.90;;;;;;4879481;29;20645;-69
2022/05/07 14:27:35;;;;;;;4.60;4.20;;;18.10;99.90;;;;;;4881633;29;20492;-69
2022/05/07 14:30:23;;;;;;;5.53;5.03;;;18.00;99.90;;;;;;4882949;29;20935;-69
2022/05/07 14:33:11;;;;;;;6.40;5.57;;;17.90;99.90;;;;;;4882803;29;20605;-69
2022/05/07 14:35:59;;;;;;;5.60;5.10;;;17.70;99.90;;;;;;4883134;29;20457;-69
2022/05/07 14:38:49;;;;;;;5.20;4.70;;;17.70;99.90;;;;;;4877501;29;20461;-69
2022/05/07 14:41:38;;;;;;;5.00;4.60;;;17.70;99.90;;;;;;4882399;29;21053;-69
2022/05/07 14:44:27;;;;;;;5.67;4.50;;;17.60;99.90;;;;;;4878419;29;20708;-69
2022/05/07 14:47:15;;;;;;;5.03;4.53;;;17.70;99.90;;;;;;4881872;29;20556;-69
2022/05/07 14:50:03;;;;;;;5.73;4.50;;;17.70;99.90;;;;;;4880554;29;20605;-69
2022/05/07 14:52:52;;;;;;;4.30;4.00;;;17.60;99.90;;;;;;4882354;29;20488;-69
2022/05/07 14:55:42;;;;;;;4.47;4.07;;;17.50;99.90;;;;;;4881151;29;20568;-69
2022/05/07 14:58:30;;;;;;;4.50;3.50;;;17.40;99.90;;;;;;4880917;29;21201;-69
2022/05/07 15:01:18;;;;;;;3.40;3.17;;;17.30;99.90;;;;;;4878988;29;20510;-70
2022/05/07 15:04:06;;;;;;;5.17;3.60;;;17.30;99.90;;;;;;4878605;29;21013;-69
2022/05/07 15:06:54;;;;;;;5.20;4.60;;;17.20;99.90;;;;;;4881777;29;20469;-69
2022/05/07 15:12:51;;;;;;;5.30;4.83;;;17.00;99.90;;;;;;4873408;29;20528;-69
2022/05/07 15:15:39;;;;;;;5.87;5.30;;;17.00;99.90;;;;;;4878624;29;20966;-69
2022/05/07 15:18:27;;;;;;;6.40;5.80;;;16.90;99.90;;;;;;4877630;29;21259;-70
2022/05/07 15:21:15;;;;;;;6.00;5.43;;;16.90;99.90;;;;;;4876433;29;20583;-69
2022/05/07 15:24:04;;;;;;;7.07;6.47;;;16.90;99.90;;;;;;4879566;29;20808;-69
2022/05/07 15:26:52;;;;;;;7.73;7.13;;;16.80;99.90;;;;;;4884886;29;20507;-69
2022/05/07 15:29:41;;;;;;;8.77;7.97;;;16.70;99.90;;;;;;4878167;29;20601;-68
2022/05/07 15:38:41;;;;;;;6.60;6.00;;;16.60;99.90;;;;;;4877338;29;21064;-69
2022/05/07 15:41:29;;;;;;;7.33;6.70;;;16.60;99.90;;;;;;4879694;29;20578;-69
2022/05/07 15:44:18;;;;;;;5.67;5.23;;;16.60;99.90;;;;;;4874894;29;20825;-69
2022/05/07 15:47:08;;;;;;;6.63;6.07;;;16.60;99.90;;;;;;4878954;29;20838;-69
2022/05/07 15:49:56;;;;;;;6.97;5.37;;;16.60;99.90;;;;;;4878557;29;21228;-69
2022/05/07 15:52:45;;;;;;;5.17;4.67;;;16.60;99.90;;;;;;4875158;29;20554;-69
2022/05/07 15:55:34;;;;;;;5.00;4.50;;;16.60;99.90;;;;;;4878514;29;20514;-69
2022/05/07 15:58:22;;;;;;;6.73;6.20;;;16.60;99.90;;;;;;4877266;29;20836;-70
2022/05/07 16:01:10;;;;;;;5.10;4.70;;;16.60;99.90;;;;;;4864221;29;21409;-69
2022/05/07 16:04:00;;;;;;;4.73;4.43;;;16.60;99.90;;;;;;4873802;29;20494;-69
2022/05/07 16:06:48;;;;;;;4.43;3.93;;;16.70;99.90;;;;;;4873960;29;20568;-69
2022/05/07 16:09:56;;;;;;;4.50;3.40;;;16.70;99.90;;;;;;4872608;29;20470;-69
2022/05/07 16:12:45;;;;;;;4.20;3.53;;;16.70;99.90;;;;;;4869098;29;20854;-69
2022/05/07 16:15:34;;;;;;;7.10;6.50;;;16.70;99.90;;;;;;4868432;29;20528;-69
2022/05/07 16:18:22;;;;;;;4.17;3.80;;;16.80;99.90;;;;;;4865018;29;20989;-69
2022/05/07 16:21:14;;;;;;;5.03;3.70;;;16.70;99.90;;;;;;4872191;29;20486;-68
2022/05/07 16:27:08;;;;;;;3.93;3.17;;;16.80;99.90;;;;;;4877953;29;20944;-69
2022/05/07 16:30:04;;;;;;;2.87;2.60;;;16.70;99.90;;;;;;4874769;29;20501;-69